sensor_id;sensor_type;location;lat;lon;timestamp;temperature;humidity
42715;DHT22;28351;51.480;5.706;2023-04-03T00:05:26;1.40;99.90
42715;DHT22;28351;51.480;5.706;2023-04-03T00:07:52;1.40;99.90
42715;DHT22;28351;51.480;5.706;2023-04-03T00:10:17;1.30;99.90
42715;DHT22;28351;51.480;5.706;2023-04-03T00:12:44;1.30;99.90
42715;DHT22;28351;51.480;5.706;2023-04-03T00:15:10;1.30;99.90
42715;DHT22;28351;51.480;5.706;2023-04-03T00:17:36;1.30;99.90
42715;DHT22;28351;51.480;5.706;2023-04-03T00:20:03;1.20;99.90
42715;DHT22;28351;51.480;5.706;2023-04-03T00:22:28;1.20;99.90
42715;DHT22;28351;51.480;5.706;2023-04-03T00:24:55;1.20;99.90
42715;DHT22;28351;51.480;5.706;2023-04-03T00:27:20;1.10;99.90
42715;DHT22;28351;51.480;5.706;2023-04-03T00:29:46;1.10;99.90
42715;DHT22;28351;51.480;5.706;2023-04-03T00:32:12;1.10;99.90
42715;DHT22;28351;51.480;5.706;2023-04-03T00:34:42;1.20;99.90
42715;DHT22;28351;51.480;5.706;2023-04-03T00:37:13;1.10;99.90
42715;DHT22;28351;51.480;5.706;2023-04-03T00:39:59;1.10;99.90
42715;DHT22;28351;51.480;5.706;2023-04-03T00:42:27;1.00;99.90
42715;DHT22;28351;51.480;5.706;2023-04-03T00:47:19;0.90;99.90
42715;DHT22;28351;51.480;5.706;2023-04-03T00:49:45;0.90;99.90
42715;DHT22;28351;51.480;5.706;2023-04-03T00:52:17;0.90;99.90
42715;DHT22;28351;51.480;5.706;2023-04-03T00:54:43;0.90;99.90
42715;DHT22;28351;51.480;5.706;2023-04-03T00:57:11;0.90;99.90
42715;DHT22;28351;51.480;5.706;2023-04-03T00:59:44;0.90;99.90
42715;DHT22;28351;51.480;5.706;2023-04-03T01:02:13;0.90;99.90
42715;DHT22;28351;51.480;5.706;2023-04-03T01:04:41;0.90;99.90
42715;DHT22;28351;51.480;5.706;2023-04-03T01:07:15;0.90;99.90
42715;DHT22;28351;51.480;5.706;2023-04-03T01:09:43;0.90;99.90
42715;DHT22;28351;51.480;5.706;2023-04-03T01:12:28;0.80;99.90
42715;DHT22;28351;51.480;5.706;2023-04-03T01:14:58;0.80;99.90
42715;DHT22;28351;51.480;5.706;2023-04-03T01:26:04;0.80;99.90
42715;DHT22;28351;51.480;5.706;2023-04-03T01:28:32;0.80;99.90
42715;DHT22;28351;51.480;5.706;2023-04-03T01:33:40;0.80;99.90
42715;DHT22;28351;51.480;5.706;2023-04-03T01:36:11;0.80;99.90
42715;DHT22;28351;51.480;5.706;2023-04-03T01:38:38;0.80;99.90
42715;DHT22;28351;51.480;5.706;2023-04-03T01:41:04;0.80;99.90
42715;DHT22;28351;51.480;5.706;2023-04-03T01:43:30;0.80;99.90
42715;DHT22;28351;51.480;5.706;2023-04-03T01:45:56;0.90;99.90
42715;DHT22;28351;51.480;5.706;2023-04-03T01:48:27;0.80;99.90
42715;DHT22;28351;51.480;5.706;2023-04-03T01:50:53;0.80;99.90
42715;DHT22;28351;51.480;5.706;2023-04-03T01:53:19;0.80;99.90
42715;DHT22;28351;51.480;5.706;2023-04-03T01:55:45;0.80;99.90
42715;DHT22;28351;51.480;5.706;2023-04-03T01:58:28;0.80;99.90
42715;DHT22;28351;51.480;5.706;2023-04-03T02:01:03;0.80;99.90
42715;DHT22;28351;51.480;5.706;2023-04-03T02:03:29;0.80;99.90
42715;DHT22;28351;51.480;5.706;2023-04-03T02:05:56;0.80;99.90
42715;DHT22;28351;51.480;5.706;2023-04-03T02:08:25;0.90;99.90
42715;DHT22;28351;51.480;5.706;2023-04-03T02:13:59;0.70;99.90
42715;DHT22;28351;51.480;5.706;2023-04-03T02:16:25;0.70;99.90
42715;DHT22;28351;51.480;5.706;2023-04-03T02:18:50;0.60;99.90
42715;DHT22;28351;51.480;5.706;2023-04-03T02:21:16;0.60;99.90
42715;DHT22;28351;51.480;5.706;2023-04-03T02:23:42;0.50;99.90
42715;DHT22;28351;51.480;5.706;2023-04-03T02:26:12;0.50;99.90
42715;DHT22;28351;51.480;5.706;2023-04-03T02:28:39;0.60;99.90
42715;DHT22;28351;51.480;5.706;2023-04-03T02:31:13;0.60;99.90
42715;DHT22;28351;51.480;5.706;2023-04-03T02:33:38;0.70;99.90
42715;DHT22;28351;51.480;5.706;2023-04-03T02:36:05;0.60;99.90
42715;DHT22;28351;51.480;5.706;2023-04-03T02:38:32;0.60;99.90
42715;DHT22;28351;51.480;5.706;2023-04-03T02:41:11;0.60;99.90
42715;DHT22;28351;51.480;5.706;2023-04-03T02:53:58;0.70;99.90
42715;DHT22;28351;51.480;5.706;2023-04-03T02:56:24;0.70;99.90
42715;DHT22;28351;51.480;5.706;2023-04-03T02:58:54;0.70;99.90
42715;DHT22;28351;51.480;5.706;2023-04-03T03:01:20;0.70;99.90
42715;DHT22;28351;51.480;5.706;2023-04-03T03:03:46;0.70;99.90
42715;DHT22;28351;51.480;5.706;2023-04-03T03:06:14;0.70;99.90
42715;DHT22;28351;51.480;5.706;2023-04-03T03:08:58;0.70;99.90
42715;DHT22;28351;51.480;5.706;2023-04-03T03:11:23;0.70;99.90
42715;DHT22;28351;51.480;5.706;2023-04-03T03:13:50;0.70;99.90
42715;DHT22;28351;51.480;5.706;2023-04-03T03:16:16;0.60;99.90
42715;DHT22;28351;51.480;5.706;2023-04-03T03:18:44;0.60;99.90
42715;DHT22;28351;51.480;5.706;2023-04-03T03:21:10;0.60;99.90
42715;DHT22;28351;51.480;5.706;2023-04-03T03:23:36;0.70;99.90
42715;DHT22;28351;51.480;5.706;2023-04-03T03:26:05;0.70;99.90
42715;DHT22;28351;51.480;5.706;2023-04-03T03:28:32;0.70;99.90
42715;DHT22;28351;51.480;5.706;2023-04-03T03:30:58;0.60;99.90
42715;DHT22;28351;51.480;5.706;2023-04-03T03:33:25;0.60;99.90
42715;DHT22;28351;51.480;5.706;2023-04-03T03:35:54;0.60;99.90
42715;DHT22;28351;51.480;5.706;2023-04-03T03:38:20;0.60;99.90
42715;DHT22;28351;51.480;5.706;2023-04-03T03:40:50;0.60;99.90
42715;DHT22;28351;51.480;5.706;2023-04-03T03:43:16;0.60;99.90
42715;DHT22;28351;51.480;5.706;2023-04-03T03:45:42;0.60;99.90
42715;DHT22;28351;51.480;5.706;2023-04-03T03:48:08;0.60;99.90
42715;DHT22;28351;51.480;5.706;2023-04-03T03:50:33;0.60;99.90
42715;DHT22;28351;51.480;5.706;2023-04-03T03:52:59;0.60;99.90
42715;DHT22;28351;51.480;5.706;2023-04-03T03:55:25;0.50;99.90
42715;DHT22;28351;51.480;5.706;2023-04-03T03:57:51;0.50;99.90
42715;DHT22;28351;51.480;5.706;2023-04-03T04:00:17;0.50;99.90
42715;DHT22;28351;51.480;5.706;2023-04-03T04:02:43;0.50;99.90
42715;DHT22;28351;51.480;5.706;2023-04-03T04:05:09;0.50;99.90
42715;DHT22;28351;51.480;5.706;2023-04-03T04:07:35;0.50;99.90
42715;DHT22;28351;51.480;5.706;2023-04-03T04:10:00;0.50;99.90
42715;DHT22;28351;51.480;5.706;2023-04-03T04:12:28;0.40;99.90
42715;DHT22;28351;51.480;5.706;2023-04-03T04:14:54;0.40;99.90
42715;DHT22;28351;51.480;5.706;2023-04-03T04:17:19;0.30;99.90
42715;DHT22;28351;51.480;5.706;2023-04-03T04:19:45;0.30;99.90
42715;DHT22;28351;51.480;5.706;2023-04-03T04:22:11;0.30;99.90
42715;DHT22;28351;51.480;5.706;2023-04-03T04:24:40;0.20;99.90
42715;DHT22;28351;51.480;5.706;2023-04-03T04:27:05;0.20;99.90
42715;DHT22;28351;51.480;5.706;2023-04-03T04:29:31;0.20;99.90
42715;DHT22;28351;51.480;5.706;2023-04-03T04:32:01;0.30;99.90
42715;DHT22;28351;51.480;5.706;2023-04-03T04:34:27;0.20;99.90
42715;DHT22;28351;51.480;5.706;2023-04-03T04:36:53;0.20;99.90
42715;DHT22;28351;51.480;5.706;2023-04-03T04:39:18;0.30;99.90
42715;DHT22;28351;51.480;5.706;2023-04-03T04:41:44;0.30;99.90
42715;DHT22;28351;51.480;5.706;2023-04-03T04:44:10;0.30;99.90
42715;DHT22;28351;51.480;5.706;2023-04-03T04:46:36;0.30;99.90
42715;DHT22;28351;51.480;5.706;2023-04-03T04:49:10;0.20;99.90
42715;DHT22;28351;51.480;5.706;2023-04-03T04:51:47;0.20;99.90
42715;DHT22;28351;51.480;5.706;2023-04-03T04:54:13;0.20;99.90
42715;DHT22;28351;51.480;5.706;2023-04-03T04:56:44;0.20;99.90
42715;DHT22;28351;51.480;5.706;2023-04-03T04:59:25;0.20;99.90
42715;DHT22;28351;51.480;5.706;2023-04-03T05:01:51;0.20;99.90
42715;DHT22;28351;51.480;5.706;2023-04-03T05:04:31;0.30;99.90
42715;DHT22;28351;51.480;5.706;2023-04-03T05:06:57;0.40;99.90
42715;DHT22;28351;51.480;5.706;2023-04-03T05:09:45;0.40;99.90
42715;DHT22;28351;51.480;5.706;2023-04-03T05:12:11;0.50;99.90
42715;DHT22;28351;51.480;5.706;2023-04-03T05:14:36;0.50;99.90
42715;DHT22;28351;51.480;5.706;2023-04-03T05:17:02;0.60;99.90
42715;DHT22;28351;51.480;5.706;2023-04-03T05:19:27;0.60;99.90
42715;DHT22;28351;51.480;5.706;2023-04-03T05:21:53;0.60;99.90
42715;DHT22;28351;51.480;5.706;2023-04-03T05:24:19;0.50;99.90
42715;DHT22;28351;51.480;5.706;2023-04-03T05:26:44;0.60;99.90
42715;DHT22;28351;51.480;5.706;2023-04-03T05:29:10;0.60;99.90
42715;DHT22;28351;51.480;5.706;2023-04-03T05:31:36;0.70;99.90
42715;DHT22;28351;51.480;5.706;2023-04-03T05:34:02;0.70;99.90
42715;DHT22;28351;51.480;5.706;2023-04-03T05:36:28;0.80;99.90
42715;DHT22;28351;51.480;5.706;2023-04-03T05:38:54;0.80;99.90
42715;DHT22;28351;51.480;5.706;2023-04-03T05:41:21;0.80;99.90
42715;DHT22;28351;51.480;5.706;2023-04-03T05:43:47;0.80;99.90
42715;DHT22;28351;51.480;5.706;2023-04-03T05:46:18;0.80;99.90
42715;DHT22;28351;51.480;5.706;2023-04-03T05:48:47;0.80;99.90
42715;DHT22;28351;51.480;5.706;2023-04-03T05:51:22;0.90;99.90
42715;DHT22;28351;51.480;5.706;2023-04-03T05:53:50;0.90;99.90
42715;DHT22;28351;51.480;5.706;2023-04-03T05:56:17;0.90;99.90
42715;DHT22;28351;51.480;5.706;2023-04-03T05:58:43;0.90;99.90
42715;DHT22;28351;51.480;5.706;2023-04-03T06:01:08;0.90;99.90
42715;DHT22;28351;51.480;5.706;2023-04-03T06:03:34;1.00;99.90
42715;DHT22;28351;51.480;5.706;2023-04-03T06:06:03;1.00;99.90
42715;DHT22;28351;51.480;5.706;2023-04-03T06:08:32;1.10;99.90
42715;DHT22;28351;51.480;5.706;2023-04-03T06:10:58;1.10;99.90
42715;DHT22;28351;51.480;5.706;2023-04-03T06:13:23;1.10;99.90
42715;DHT22;28351;51.480;5.706;2023-04-03T06:15:49;1.20;99.90
42715;DHT22;28351;51.480;5.706;2023-04-03T06:18:15;1.20;99.90
42715;DHT22;28351;51.480;5.706;2023-04-03T06:20:40;1.30;99.90
42715;DHT22;28351;51.480;5.706;2023-04-03T06:23:06;1.40;99.90
42715;DHT22;28351;51.480;5.706;2023-04-03T06:25:32;1.40;99.90
42715;DHT22;28351;51.480;5.706;2023-04-03T06:27:58;1.40;99.90
42715;DHT22;28351;51.480;5.706;2023-04-03T06:30:24;1.50;99.90
42715;DHT22;28351;51.480;5.706;2023-04-03T06:32:50;1.60;99.90
42715;DHT22;28351;51.480;5.706;2023-04-03T06:35:17;1.60;99.90
42715;DHT22;28351;51.480;5.706;2023-04-03T06:37:43;1.60;99.90
42715;DHT22;28351;51.480;5.706;2023-04-03T06:40:21;1.70;99.90
42715;DHT22;28351;51.480;5.706;2023-04-03T06:42:47;1.80;99.90
42715;DHT22;28351;51.480;5.706;2023-04-03T06:45:13;1.90;99.90
42715;DHT22;28351;51.480;5.706;2023-04-03T06:47:38;2.00;99.90
42715;DHT22;28351;51.480;5.706;2023-04-03T06:50:04;2.00;99.90
42715;DHT22;28351;51.480;5.706;2023-04-03T06:52:31;2.10;99.90
42715;DHT22;28351;51.480;5.706;2023-04-03T06:54:57;2.20;99.90
42715;DHT22;28351;51.480;5.706;2023-04-03T06:57:25;2.30;99.90
42715;DHT22;28351;51.480;5.706;2023-04-03T06:59:50;2.40;99.90
42715;DHT22;28351;51.480;5.706;2023-04-03T07:02:16;2.40;99.90
42715;DHT22;28351;51.480;5.706;2023-04-03T07:04:42;2.50;99.90
42715;DHT22;28351;51.480;5.706;2023-04-03T07:07:08;2.60;99.90
42715;DHT22;28351;51.480;5.706;2023-04-03T07:09:33;2.70;99.90
42715;DHT22;28351;51.480;5.706;2023-04-03T07:11:59;2.70;99.90
42715;DHT22;28351;51.480;5.706;2023-04-03T07:14:25;2.80;99.90
42715;DHT22;28351;51.480;5.706;2023-04-03T07:16:51;2.80;99.90
42715;DHT22;28351;51.480;5.706;2023-04-03T07:19:17;2.80;99.90
42715;DHT22;28351;51.480;5.706;2023-04-03T07:21:44;2.90;99.90
42715;DHT22;28351;51.480;5.706;2023-04-03T07:24:10;3.00;99.90
42715;DHT22;28351;51.480;5.706;2023-04-03T07:26:36;3.00;99.90
42715;DHT22;28351;51.480;5.706;2023-04-03T07:29:01;3.10;99.90
42715;DHT22;28351;51.480;5.706;2023-04-03T07:31:29;3.10;99.90
42715;DHT22;28351;51.480;5.706;2023-04-03T07:33:55;3.20;99.90
42715;DHT22;28351;51.480;5.706;2023-04-03T07:36:21;3.30;99.90
42715;DHT22;28351;51.480;5.706;2023-04-03T07:38:53;3.30;99.90
42715;DHT22;28351;51.480;5.706;2023-04-03T07:41:20;3.40;99.90
42715;DHT22;28351;51.480;5.706;2023-04-03T07:43:52;3.40;99.90
42715;DHT22;28351;51.480;5.706;2023-04-03T07:46:26;3.50;99.90
42715;DHT22;28351;51.480;5.706;2023-04-03T07:48:55;3.60;99.90
42715;DHT22;28351;51.480;5.706;2023-04-03T07:51:29;3.60;99.90
42715;DHT22;28351;51.480;5.706;2023-04-03T07:53:56;3.70;99.90
42715;DHT22;28351;51.480;5.706;2023-04-03T07:56:33;3.70;99.90
42715;DHT22;28351;51.480;5.706;2023-04-03T07:58:59;3.70;99.90
42715;DHT22;28351;51.480;5.706;2023-04-03T08:01:25;3.90;99.90
42715;DHT22;28351;51.480;5.706;2023-04-03T08:03:51;4.00;99.90
42715;DHT22;28351;51.480;5.706;2023-04-03T08:06:16;4.00;99.90
42715;DHT22;28351;51.480;5.706;2023-04-03T08:08:42;4.00;99.90
42715;DHT22;28351;51.480;5.706;2023-04-03T08:11:10;4.10;99.90
42715;DHT22;28351;51.480;5.706;2023-04-03T08:13:36;4.20;99.90
42715;DHT22;28351;51.480;5.706;2023-04-03T08:16:10;4.30;99.90
42715;DHT22;28351;51.480;5.706;2023-04-03T08:18:35;4.30;99.90
42715;DHT22;28351;51.480;5.706;2023-04-03T08:21:05;4.40;99.90
42715;DHT22;28351;51.480;5.706;2023-04-03T08:23:31;4.50;99.90
42715;DHT22;28351;51.480;5.706;2023-04-03T08:25:56;4.50;99.90
42715;DHT22;28351;51.480;5.706;2023-04-03T08:28:22;4.70;99.90
42715;DHT22;28351;51.480;5.706;2023-04-03T08:30:47;4.70;99.90
42715;DHT22;28351;51.480;5.706;2023-04-03T08:33:13;4.80;99.90
42715;DHT22;28351;51.480;5.706;2023-04-03T08:35:40;4.90;99.90
42715;DHT22;28351;51.480;5.706;2023-04-03T08:38:07;5.00;99.90
42715;DHT22;28351;51.480;5.706;2023-04-03T08:40:32;5.00;99.90
42715;DHT22;28351;51.480;5.706;2023-04-03T08:43:14;5.10;99.90
42715;DHT22;28351;51.480;5.706;2023-04-03T08:45:49;5.20;99.90
42715;DHT22;28351;51.480;5.706;2023-04-03T08:48:23;5.30;99.90
42715;DHT22;28351;51.480;5.706;2023-04-03T08:50:56;5.40;99.90
42715;DHT22;28351;51.480;5.706;2023-04-03T08:53:27;5.50;99.90
42715;DHT22;28351;51.480;5.706;2023-04-03T08:55:55;5.60;99.90
42715;DHT22;28351;51.480;5.706;2023-04-03T08:58:23;5.60;99.90
42715;DHT22;28351;51.480;5.706;2023-04-03T09:01:39;5.60;99.90
42715;DHT22;28351;51.480;5.706;2023-04-03T09:03:44;5.70;99.90
42715;DHT22;28351;51.480;5.706;2023-04-03T09:08:51;5.90;99.90
42715;DHT22;28351;51.480;5.706;2023-04-03T09:11:25;6.00;99.90
42715;DHT22;28351;51.480;5.706;2023-04-03T09:14:07;6.10;99.90
42715;DHT22;28351;51.480;5.706;2023-04-03T09:16:52;6.30;99.30
42715;DHT22;28351;51.480;5.706;2023-04-03T09:22:11;6.40;98.10
42715;DHT22;28351;51.480;5.706;2023-04-03T09:24:39;6.50;97.90
42715;DHT22;28351;51.480;5.706;2023-04-03T09:27:09;6.60;97.00
42715;DHT22;28351;51.480;5.706;2023-04-03T09:29:40;6.70;96.90
42715;DHT22;28351;51.480;5.706;2023-04-03T09:32:30;6.70;97.70
42715;DHT22;28351;51.480;5.706;2023-04-03T09:35:14;6.90;96.30
42715;DHT22;28351;51.480;5.706;2023-04-03T09:37:43;7.00;96.40
42715;DHT22;28351;51.480;5.706;2023-04-03T09:40:33;7.00;95.00
42715;DHT22;28351;51.480;5.706;2023-04-03T09:43:21;7.00;95.90
42715;DHT22;28351;51.480;5.706;2023-04-03T09:45:49;7.20;95.10
42715;DHT22;28351;51.480;5.706;2023-04-03T09:48:16;7.20;94.90
42715;DHT22;28351;51.480;5.706;2023-04-03T09:50:58;7.20;94.20
42715;DHT22;28351;51.480;5.706;2023-04-03T09:56:00;7.40;94.50
42715;DHT22;28351;51.480;5.706;2023-04-03T09:58:37;7.40;93.40
42715;DHT22;28351;51.480;5.706;2023-04-03T10:01:05;7.60;93.60
42715;DHT22;28351;51.480;5.706;2023-04-03T10:03:37;7.70;93.10
42715;DHT22;28351;51.480;5.706;2023-04-03T10:06:24;7.70;92.50
42715;DHT22;28351;51.480;5.706;2023-04-03T10:09:28;7.90;92.70
42715;DHT22;28351;51.480;5.706;2023-04-03T10:12:06;7.80;92.80
42715;DHT22;28351;51.480;5.706;2023-04-03T10:17:28;8.00;91.80
42715;DHT22;28351;51.480;5.706;2023-04-03T10:22:56;8.50;91.90
42715;DHT22;28351;51.480;5.706;2023-04-03T10:31:57;8.60;91.00
42715;DHT22;28351;51.480;5.706;2023-04-03T10:37:21;9.00;90.70
42715;DHT22;28351;51.480;5.706;2023-04-03T10:40:02;9.00;90.90
42715;DHT22;28351;51.480;5.706;2023-04-03T10:45:31;9.30;90.80
42715;DHT22;28351;51.480;5.706;2023-04-03T10:53:24;9.50;90.50
42715;DHT22;28351;51.480;5.706;2023-04-03T10:58:49;9.70;86.70
42715;DHT22;28351;51.480;5.706;2023-04-03T11:01:21;9.70;89.20
42715;DHT22;28351;51.480;5.706;2023-04-03T11:03:53;9.90;88.00
42715;DHT22;28351;51.480;5.706;2023-04-03T11:06:21;10.20;85.70
42715;DHT22;28351;51.480;5.706;2023-04-03T11:11:30;10.70;84.70
42715;DHT22;28351;51.480;5.706;2023-04-03T11:14:05;10.80;85.40
42715;DHT22;28351;51.480;5.706;2023-04-03T11:16:40;11.20;84.50
42715;DHT22;28351;51.480;5.706;2023-04-03T11:19:21;11.40;86.00
42715;DHT22;28351;51.480;5.706;2023-04-03T11:22:04;11.80;87.00
42715;DHT22;28351;51.480;5.706;2023-04-03T11:24:37;12.10;84.10
42715;DHT22;28351;51.480;5.706;2023-04-03T11:27:05;12.40;81.50
42715;DHT22;28351;51.480;5.706;2023-04-03T11:29:38;13.30;86.00
42715;DHT22;28351;51.480;5.706;2023-04-03T11:35:23;15.20;82.30
42715;DHT22;28351;51.480;5.706;2023-04-03T11:37:53;15.40;80.60
42715;DHT22;28351;51.480;5.706;2023-04-03T11:40:24;16.50;79.30
42715;DHT22;28351;51.480;5.706;2023-04-03T11:43:22;16.90;78.20
42715;DHT22;28351;51.480;5.706;2023-04-03T11:46:01;17.20;78.00
42715;DHT22;28351;51.480;5.706;2023-04-03T11:51:00;17.90;75.20
42715;DHT22;28351;51.480;5.706;2023-04-03T11:53:32;17.40;74.80
42715;DHT22;28351;51.480;5.706;2023-04-03T11:56:00;18.10;73.20
42715;DHT22;28351;51.480;5.706;2023-04-03T11:58:31;17.40;74.60
42715;DHT22;28351;51.480;5.706;2023-04-03T12:01:04;17.40;73.70
42715;DHT22;28351;51.480;5.706;2023-04-03T12:03:55;17.90;75.30
42715;DHT22;28351;51.480;5.706;2023-04-03T12:08:54;19.10;73.60
42715;DHT22;28351;51.480;5.706;2023-04-03T12:11:25;18.90;73.90
42715;DHT22;28351;51.480;5.706;2023-04-03T12:22:06;18.60;74.00
42715;DHT22;28351;51.480;5.706;2023-04-03T12:24:41;19.50;74.60
42715;DHT22;28351;51.480;5.706;2023-04-03T12:27:38;19.50;71.80
42715;DHT22;28351;51.480;5.706;2023-04-03T12:30:13;19.00;71.80
42715;DHT22;28351;51.480;5.706;2023-04-03T12:35:26;19.70;71.60
42715;DHT22;28351;51.480;5.706;2023-04-03T12:40:48;19.80;71.80
42715;DHT22;28351;51.480;5.706;2023-04-03T12:46:18;18.90;72.00
42715;DHT22;28351;51.480;5.706;2023-04-03T12:48:58;19.20;75.00
42715;DHT22;28351;51.480;5.706;2023-04-03T12:51:39;19.60;73.50
42715;DHT22;28351;51.480;5.706;2023-04-03T12:54:37;20.40;72.00
42715;DHT22;28351;51.480;5.706;2023-04-03T12:57:18;20.80;69.50
42715;DHT22;28351;51.480;5.706;2023-04-03T12:59:50;20.50;69.30
42715;DHT22;28351;51.480;5.706;2023-04-03T13:02:33;20.20;70.40
42715;DHT22;28351;51.480;5.706;2023-04-03T13:08:31;19.80;72.40
42715;DHT22;28351;51.480;5.706;2023-04-03T13:11:03;19.50;70.80
42715;DHT22;28351;51.480;5.706;2023-04-03T13:13:31;19.10;72.60
42715;DHT22;28351;51.480;5.706;2023-04-03T13:15:57;19.30;71.90
42715;DHT22;28351;51.480;5.706;2023-04-03T13:18:31;18.90;71.50
42715;DHT22;28351;51.480;5.706;2023-04-03T13:21:22;18.70;71.60
42715;DHT22;28351;51.480;5.706;2023-04-03T13:23:50;17.90;71.40
42715;DHT22;28351;51.480;5.706;2023-04-03T13:26:18;18.70;73.60
42715;DHT22;28351;51.480;5.706;2023-04-03T13:28:46;19.60;72.40
42715;DHT22;28351;51.480;5.706;2023-04-03T13:42:14;20.50;72.80
42715;DHT22;28351;51.480;5.706;2023-04-03T13:44:40;20.20;72.10
42715;DHT22;28351;51.480;5.706;2023-04-03T13:47:22;19.80;70.30
42715;DHT22;28351;51.480;5.706;2023-04-03T13:50:14;19.40;71.10
42715;DHT22;28351;51.480;5.706;2023-04-03T14:00:53;19.70;71.50
42715;DHT22;28351;51.480;5.706;2023-04-03T14:05:53;19.00;72.20
42715;DHT22;28351;51.480;5.706;2023-04-03T14:08:20;19.00;70.40
42715;DHT22;28351;51.480;5.706;2023-04-03T14:10:45;19.60;73.10
42715;DHT22;28351;51.480;5.706;2023-04-03T14:13:17;20.30;71.80
42715;DHT22;28351;51.480;5.706;2023-04-03T14:15:44;20.60;73.00
42715;DHT22;28351;51.480;5.706;2023-04-03T14:18:19;19.60;72.50
42715;DHT22;28351;51.480;5.706;2023-04-03T14:20:47;19.50;70.70
42715;DHT22;28351;51.480;5.706;2023-04-03T14:23:12;19.40;71.50
42715;DHT22;28351;51.480;5.706;2023-04-03T14:25:39;19.00;73.80
42715;DHT22;28351;51.480;5.706;2023-04-03T14:28:20;19.60;71.00
42715;DHT22;28351;51.480;5.706;2023-04-03T14:30:48;19.60;71.10
42715;DHT22;28351;51.480;5.706;2023-04-03T14:33:34;19.20;73.30
42715;DHT22;28351;51.480;5.706;2023-04-03T14:43:22;19.00;71.70
42715;DHT22;28351;51.480;5.706;2023-04-03T14:45:51;20.10;72.60
42715;DHT22;28351;51.480;5.706;2023-04-03T14:48:26;19.70;72.60
42715;DHT22;28351;51.480;5.706;2023-04-03T14:50:52;19.00;70.50
42715;DHT22;28351;51.480;5.706;2023-04-03T14:53:27;18.90;71.60
42715;DHT22;28351;51.480;5.706;2023-04-03T14:55:55;18.50;71.90
42715;DHT22;28351;51.480;5.706;2023-04-03T15:01:28;18.60;72.00
42715;DHT22;28351;51.480;5.706;2023-04-03T15:04:14;18.70;75.30
42715;DHT22;28351;51.480;5.706;2023-04-03T15:06:52;19.30;72.30
42715;DHT22;28351;51.480;5.706;2023-04-03T15:09:27;18.60;71.80
42715;DHT22;28351;51.480;5.706;2023-04-03T15:11:55;18.40;71.90
42715;DHT22;28351;51.480;5.706;2023-04-03T15:14:21;17.90;72.50
42715;DHT22;28351;51.480;5.706;2023-04-03T15:16:57;18.40;71.80
42715;DHT22;28351;51.480;5.706;2023-04-03T15:19:23;18.60;74.40
42715;DHT22;28351;51.480;5.706;2023-04-03T15:21:49;18.50;71.90
42715;DHT22;28351;51.480;5.706;2023-04-03T15:24:18;18.50;72.60
42715;DHT22;28351;51.480;5.706;2023-04-03T15:26:46;18.10;73.90
42715;DHT22;28351;51.480;5.706;2023-04-03T15:29:13;18.30;72.00
42715;DHT22;28351;51.480;5.706;2023-04-03T15:31:38;18.20;73.50
42715;DHT22;28351;51.480;5.706;2023-04-03T15:34:04;18.00;72.80
42715;DHT22;28351;51.480;5.706;2023-04-03T15:36:29;17.90;74.30
42715;DHT22;28351;51.480;5.706;2023-04-03T15:38:55;17.00;73.60
42715;DHT22;28351;51.480;5.706;2023-04-03T15:41:21;15.20;75.30
42715;DHT22;28351;51.480;5.706;2023-04-03T15:43:47;13.60;77.10
42715;DHT22;28351;51.480;5.706;2023-04-03T15:46:13;12.60;80.70
42715;DHT22;28351;51.480;5.706;2023-04-03T15:48:39;11.80;79.70
42715;DHT22;28351;51.480;5.706;2023-04-03T15:51:05;11.30;80.30
42715;DHT22;28351;51.480;5.706;2023-04-03T15:53:31;11.00;80.80
42715;DHT22;28351;51.480;5.706;2023-04-03T15:56:00;10.90;82.70
42715;DHT22;28351;51.480;5.706;2023-04-03T15:58:25;10.90;82.50
42715;DHT22;28351;51.480;5.706;2023-04-03T16:00:58;10.70;82.90
42715;DHT22;28351;51.480;5.706;2023-04-03T16:03:23;10.60;83.70
42715;DHT22;28351;51.480;5.706;2023-04-03T16:05:50;10.50;84.30
42715;DHT22;28351;51.480;5.706;2023-04-03T16:08:16;10.20;83.00
42715;DHT22;28351;51.480;5.706;2023-04-03T16:10:43;10.20;84.80
42715;DHT22;28351;51.480;5.706;2023-04-03T16:13:11;10.30;84.70
42715;DHT22;28351;51.480;5.706;2023-04-03T16:15:36;10.10;84.00
42715;DHT22;28351;51.480;5.706;2023-04-03T16:18:05;10.10;86.60
42715;DHT22;28351;51.480;5.706;2023-04-03T16:20:31;10.00;86.20
42715;DHT22;28351;51.480;5.706;2023-04-03T16:23:00;10.20;86.30
42715;DHT22;28351;51.480;5.706;2023-04-03T16:25:26;10.20;86.50
42715;DHT22;28351;51.480;5.706;2023-04-03T16:27:52;10.10;84.90
42715;DHT22;28351;51.480;5.706;2023-04-03T16:30:18;10.00;86.20
42715;DHT22;28351;51.480;5.706;2023-04-03T16:32:44;9.90;86.40
42715;DHT22;28351;51.480;5.706;2023-04-03T16:35:10;9.80;86.80
42715;DHT22;28351;51.480;5.706;2023-04-03T16:37:37;9.80;87.40
42715;DHT22;28351;51.480;5.706;2023-04-03T16:40:03;9.80;88.70
42715;DHT22;28351;51.480;5.706;2023-04-03T16:42:30;9.80;87.90
42715;DHT22;28351;51.480;5.706;2023-04-03T16:44:56;9.70;88.60
42715;DHT22;28351;51.480;5.706;2023-04-03T16:47:22;9.70;89.00
42715;DHT22;28351;51.480;5.706;2023-04-03T16:49:47;9.60;89.10
42715;DHT22;28351;51.480;5.706;2023-04-03T16:52:14;9.60;88.90
42715;DHT22;28351;51.480;5.706;2023-04-03T16:54:40;9.50;87.70
42715;DHT22;28351;51.480;5.706;2023-04-03T16:57:05;9.30;88.50
42715;DHT22;28351;51.480;5.706;2023-04-03T16:59:31;9.30;87.70
42715;DHT22;28351;51.480;5.706;2023-04-03T17:01:58;9.10;88.40
42715;DHT22;28351;51.480;5.706;2023-04-03T17:04:23;9.10;88.60
42715;DHT22;28351;51.480;5.706;2023-04-03T17:06:49;9.00;89.00
42715;DHT22;28351;51.480;5.706;2023-04-03T17:09:17;9.00;89.30
42715;DHT22;28351;51.480;5.706;2023-04-03T17:11:42;9.00;89.00
42715;DHT22;28351;51.480;5.706;2023-04-03T17:14:14;8.80;89.40
42715;DHT22;28351;51.480;5.706;2023-04-03T17:16:40;8.80;89.70
42715;DHT22;28351;51.480;5.706;2023-04-03T17:19:06;8.80;90.20
42715;DHT22;28351;51.480;5.706;2023-04-03T17:21:33;8.70;91.10
42715;DHT22;28351;51.480;5.706;2023-04-03T17:24:01;8.70;90.70
42715;DHT22;28351;51.480;5.706;2023-04-03T17:26:27;8.60;90.50
42715;DHT22;28351;51.480;5.706;2023-04-03T17:28:54;8.50;90.90
42715;DHT22;28351;51.480;5.706;2023-04-03T17:34:47;8.40;90.30
42715;DHT22;28351;51.480;5.706;2023-04-03T17:37:22;8.30;90.50
42715;DHT22;28351;51.480;5.706;2023-04-03T17:39:48;8.20;90.50
42715;DHT22;28351;51.480;5.706;2023-04-03T17:42:13;8.20;90.90
42715;DHT22;28351;51.480;5.706;2023-04-03T17:44:39;8.10;90.80
42715;DHT22;28351;51.480;5.706;2023-04-03T17:47:09;8.00;91.30
42715;DHT22;28351;51.480;5.706;2023-04-03T17:49:34;8.00;91.20
42715;DHT22;28351;51.480;5.706;2023-04-03T17:52:00;7.90;92.00
42715;DHT22;28351;51.480;5.706;2023-04-03T17:54:25;7.90;92.40
42715;DHT22;28351;51.480;5.706;2023-04-03T17:57:00;7.70;92.10
42715;DHT22;28351;51.480;5.706;2023-04-03T17:59:27;7.70;92.60
42715;DHT22;28351;51.480;5.706;2023-04-03T18:02:02;7.50;92.60
42715;DHT22;28351;51.480;5.706;2023-04-03T18:04:28;7.50;92.40
42715;DHT22;28351;51.480;5.706;2023-04-03T18:06:55;7.50;92.50
42715;DHT22;28351;51.480;5.706;2023-04-03T18:09:33;7.40;92.70